sensor_id;sensor_type;location;lat;lon;timestamp;pressure;altitude;pressure_sealevel;temperature;humidity
11621;BME280;5866;49.094;11.900;2023-04-27T00:00:10;96312.47;;;8.16;73.72
11621;BME280;5866;49.094;11.900;2023-04-27T00:02:39;96310.09;;;8.22;74.94
11621;BME280;5866;49.094;11.900;2023-04-27T00:05:08;96297.31;;;8.27;74.76
11621;BME280;5866;49.094;11.900;2023-04-27T00:07:37;96294.78;;;8.35;74.20
11621;BME280;5866;49.094;11.900;2023-04-27T00:10:05;96297.94;;;8.39;72.80
11621;BME280;5866;49.094;11.900;2023-04-27T00:12:33;96299.63;;;8.40;72.71
11621;BME280;5866;49.094;11.900;2023-04-27T00:15:00;96303.50;;;8.36;73.67
11621;BME280;5866;49.094;11.900;2023-04-27T00:17:28;96302.44;;;8.19;74.90
11621;BME280;5866;49.094;11.900;2023-04-27T00:19:57;96303.72;;;8.15;76.49
11621;BME280;5866;49.094;11.900;2023-04-27T00:22:25;96305.66;;;8.13;76.61
11621;BME280;5866;49.094;11.900;2023-04-27T00:24:53;96301.91;;;8.25;75.64
11621;BME280;5866;49.094;11.900;2023-04-27T00:27:20;96298.00;;;8.29;75.21
11621;BME280;5866;49.094;11.900;2023-04-27T00:29:48;96295.03;;;8.32;75.11
11621;BME280;5866;49.094;11.900;2023-04-27T00:32:15;96295.63;;;8.26;75.77
11621;BME280;5866;49.094;11.900;2023-04-27T00:34:43;96299.00;;;8.09;76.86
11621;BME280;5866;49.094;11.900;2023-04-27T00:37:12;96293.72;;;8.09;77.02
11621;BME280;5866;49.094;11.900;2023-04-27T00:39:39;96297.72;;;8.23;76.66
11621;BME280;5866;49.094;11.900;2023-04-27T00:42:07;96293.53;;;8.30;76.50
11621;BME280;5866;49.094;11.900;2023-04-27T00:44:36;96294.44;;;8.38;76.25
11621;BME280;5866;49.094;11.900;2023-04-27T00:47:05;96296.13;;;8.39;77.20
11621;BME280;5866;49.094;11.900;2023-04-27T00:49:32;96293.69;;;8.28;79.71
11621;BME280;5866;49.094;11.900;2023-04-27T00:52:00;96293.34;;;8.41;80.10
11621;BME280;5866;49.094;11.900;2023-04-27T00:54:30;96288.44;;;8.46;80.37
11621;BME280;5866;49.094;11.900;2023-04-27T00:56:57;96295.34;;;8.29;81.11
11621;BME280;5866;49.094;11.900;2023-04-27T00:59:25;96285.22;;;7.69;83.09
11621;BME280;5866;49.094;11.900;2023-04-27T01:01:53;96294.19;;;7.30;85.34
11621;BME280;5866;49.094;11.900;2023-04-27T01:04:21;96294.19;;;7.30;86.10
11621;BME280;5866;49.094;11.900;2023-04-27T01:06:49;96291.41;;;7.41;85.13
11621;BME280;5866;49.094;11.900;2023-04-27T01:09:17;96289.09;;;7.84;81.89
11621;BME280;5866;49.094;11.900;2023-04-27T01:11:46;96283.47;;;7.96;80.44
11621;BME280;5866;49.094;11.900;2023-04-27T01:14:14;96283.53;;;7.87;80.46
11621;BME280;5866;49.094;11.900;2023-04-27T01:16:42;96286.38;;;8.03;79.26
11621;BME280;5866;49.094;11.900;2023-04-27T01:19:11;96279.56;;;8.00;79.04
11621;BME280;5866;49.094;11.900;2023-04-27T01:21:39;96275.38;;;8.08;78.64
11621;BME280;5866;49.094;11.900;2023-04-27T01:24:08;96273.84;;;8.05;79.52
11621;BME280;5866;49.094;11.900;2023-04-27T01:26:36;96277.19;;;8.07;79.64
11621;BME280;5866;49.094;11.900;2023-04-27T01:29:04;96275.13;;;8.01;80.08
11621;BME280;5866;49.094;11.900;2023-04-27T01:31:31;96283.16;;;8.09;80.25
11621;BME280;5866;49.094;11.900;2023-04-27T01:33:59;96270.34;;;8.14;80.13
11621;BME280;5866;49.094;11.900;2023-04-27T01:36:26;96279.66;;;8.18;77.94
11621;BME280;5866;49.094;11.900;2023-04-27T01:38:54;96273.94;;;8.23;78.09
11621;BME280;5866;49.094;11.900;2023-04-27T01:41:23;96280.03;;;8.23;77.43
11621;BME280;5866;49.094;11.900;2023-04-27T01:43:50;96283.84;;;8.11;77.13
11621;BME280;5866;49.094;11.900;2023-04-27T01:46:18;96283.47;;;8.06;77.26
11621;BME280;5866;49.094;11.900;2023-04-27T01:48:45;96293.63;;;8.01;77.93
11621;BME280;5866;49.094;11.900;2023-04-27T01:51:13;96289.31;;;8.00;77.99
11621;BME280;5866;49.094;11.900;2023-04-27T01:53:41;96281.41;;;8.00;78.30
11621;BME280;5866;49.094;11.900;2023-04-27T01:56:09;96291.66;;;8.03;77.91
11621;BME280;5866;49.094;11.900;2023-04-27T01:58:37;96286.09;;;8.06;77.63
11621;BME280;5866;49.094;11.900;2023-04-27T02:01:05;96295.31;;;8.02;77.43
11621;BME280;5866;49.094;11.900;2023-04-27T02:03:32;96295.16;;;7.94;78.09
11621;BME280;5866;49.094;11.900;2023-04-27T02:06:00;96298.78;;;7.93;77.84
11621;BME280;5866;49.094;11.900;2023-04-27T02:08:28;96288.56;;;7.80;78.93
11621;BME280;5866;49.094;11.900;2023-04-27T02:10:55;96296.66;;;7.50;80.80
11621;BME280;5866;49.094;11.900;2023-04-27T02:13:23;96289.19;;;7.36;82.04
11621;BME280;5866;49.094;11.900;2023-04-27T02:15:51;96300.84;;;7.34;82.09
11621;BME280;5866;49.094;11.900;2023-04-27T02:18:21;96296.53;;;7.52;80.96
11621;BME280;5866;49.094;11.900;2023-04-27T02:20:49;96298.31;;;7.61;80.31
11621;BME280;5866;49.094;11.900;2023-04-27T02:23:16;96296.94;;;7.66;79.48
11621;BME280;5866;49.094;11.900;2023-04-27T02:25:44;96301.94;;;7.60;79.40
11621;BME280;5866;49.094;11.900;2023-04-27T02:28:12;96306.53;;;7.58;79.66
11621;BME280;5866;49.094;11.900;2023-04-27T02:30:40;96292.38;;;7.40;80.05
11621;BME280;5866;49.094;11.900;2023-04-27T02:33:09;96296.28;;;7.45;80.03
11621;BME280;5866;49.094;11.900;2023-04-27T02:35:36;96300.88;;;7.43;79.58
11621;BME280;5866;49.094;11.900;2023-04-27T02:38:04;96290.84;;;7.47;78.71
11621;BME280;5866;49.094;11.900;2023-04-27T02:40:32;96296.97;;;7.47;78.39
11621;BME280;5866;49.094;11.900;2023-04-27T02:42:59;96301.09;;;7.59;77.87
11621;BME280;5866;49.094;11.900;2023-04-27T02:45:27;96294.97;;;7.59;77.74
11621;BME280;5866;49.094;11.900;2023-04-27T02:47:55;96304.84;;;7.57;77.48
11621;BME280;5866;49.094;11.900;2023-04-27T02:50:23;96306.00;;;7.45;79.36
11621;BME280;5866;49.094;11.900;2023-04-27T02:52:51;96309.19;;;7.39;78.14
11621;BME280;5866;49.094;11.900;2023-04-27T02:55:19;96309.19;;;7.39;77.46
11621;BME280;5866;49.094;11.900;2023-04-27T02:57:46;96309.06;;;6.92;81.32
11621;BME280;5866;49.094;11.900;2023-04-27T03:00:14;96306.00;;;7.06;81.50
11621;BME280;5866;49.094;11.900;2023-04-27T03:02:42;96309.19;;;7.19;80.63
11621;BME280;5866;49.094;11.900;2023-04-27T03:05:10;96311.69;;;7.31;79.15
11621;BME280;5866;49.094;11.900;2023-04-27T03:07:39;96302.81;;;7.32;78.19
11621;BME280;5866;49.094;11.900;2023-04-27T03:10:07;96302.94;;;7.20;78.59
11621;BME280;5866;49.094;11.900;2023-04-27T03:12:35;96308.09;;;7.22;78.40
11621;BME280;5866;49.094;11.900;2023-04-27T03:15:03;96304.50;;;7.13;78.97
11621;BME280;5866;49.094;11.900;2023-04-27T03:17:31;96304.75;;;7.01;79.42
11621;BME280;5866;49.094;11.900;2023-04-27T03:19:58;96311.16;;;6.89;80.27
11621;BME280;5866;49.094;11.900;2023-04-27T03:22:27;96317.13;;;6.32;86.99
11621;BME280;5866;49.094;11.900;2023-04-27T03:24:55;96312.75;;;6.61;84.87
11621;BME280;5866;49.094;11.900;2023-04-27T03:27:23;96310.13;;;6.71;83.49
11621;BME280;5866;49.094;11.900;2023-04-27T03:29:51;96318.28;;;6.58;83.92
11621;BME280;5866;49.094;11.900;2023-04-27T03:32:19;96317.59;;;6.56;84.08
11621;BME280;5866;49.094;11.900;2023-04-27T03:34:46;96319.81;;;6.51;83.52
11621;BME280;5866;49.094;11.900;2023-04-27T03:37:14;96321.00;;;6.37;84.29
11621;BME280;5866;49.094;11.900;2023-04-27T03:39:41;96321.41;;;6.33;86.05
11621;BME280;5866;49.094;11.900;2023-04-27T03:42:11;96332.22;;;6.30;86.14
11621;BME280;5866;49.094;11.900;2023-04-27T03:44:39;96325.69;;;6.24;86.54
11621;BME280;5866;49.094;11.900;2023-04-27T03:47:06;96335.09;;;6.17;87.23
11621;BME280;5866;49.094;11.900;2023-04-27T03:49:35;96336.72;;;6.09;87.60
11621;BME280;5866;49.094;11.900;2023-04-27T03:52:02;96332.50;;;5.97;88.53
11621;BME280;5866;49.094;11.900;2023-04-27T03:54:30;96345.84;;;6.05;88.10
11621;BME280;5866;49.094;11.900;2023-04-27T03:56:58;96342.50;;;6.03;87.92
11621;BME280;5866;49.094;11.900;2023-04-27T03:59:29;96340.47;;;5.86;89.08
11621;BME280;5866;49.094;11.900;2023-04-27T04:01:56;96343.72;;;5.78;90.23
11621;BME280;5866;49.094;11.900;2023-04-27T04:04:26;96350.16;;;5.85;89.94
11621;BME280;5866;49.094;11.900;2023-04-27T04:06:54;96346.81;;;5.83;89.24
11621;BME280;5866;49.094;11.900;2023-04-27T04:09:21;96350.53;;;5.81;90.33
11621;BME280;5866;49.094;11.900;2023-04-27T04:11:50;96353.63;;;5.86;89.81
11621;BME280;5866;49.094;11.900;2023-04-27T04:14:17;96347.28;;;5.68;90.49
11621;BME280;5866;49.094;11.900;2023-04-27T04:16:46;96351.50;;;5.80;91.60
11621;BME280;5866;49.094;11.900;2023-04-27T04:19:14;96360.50;;;5.56;93.78
11621;BME280;5866;49.094;11.900;2023-04-27T04:21:42;96355.44;;;5.85;92.39
11621;BME280;5866;49.094;11.900;2023-04-27T04:24:09;96361.38;;;6.08;90.28
11621;BME280;5866;49.094;11.900;2023-04-27T04:26:37;96362.72;;;5.82;91.95
11621;BME280;5866;49.094;11.900;2023-04-27T04:29:04;96360.84;;;6.14;90.22
11621;BME280;5866;49.094;11.900;2023-04-27T04:31:35;96365.63;;;6.29;87.72
11621;BME280;5866;49.094;11.900;2023-04-27T04:34:04;96368.34;;;6.49;85.55
11621;BME280;5866;49.094;11.900;2023-04-27T04:36:32;96378.25;;;6.66;84.80
11621;BME280;5866;49.094;11.900;2023-04-27T04:38:59;96378.81;;;6.69;85.25
11621;BME280;5866;49.094;11.900;2023-04-27T04:41:27;96379.69;;;6.89;83.94
11621;BME280;5866;49.094;11.900;2023-04-27T04:43:54;96378.88;;;7.07;83.04
11621;BME280;5866;49.094;11.900;2023-04-27T04:46:22;96377.38;;;7.24;81.56
11621;BME280;5866;49.094;11.900;2023-04-27T04:48:50;96365.56;;;7.38;79.99
11621;BME280;5866;49.094;11.900;2023-04-27T04:51:21;96363.34;;;7.52;78.49
11621;BME280;5866;49.094;11.900;2023-04-27T04:53:48;96358.59;;;7.65;75.59
11621;BME280;5866;49.094;11.900;2023-04-27T04:56:16;96364.69;;;7.75;74.14
11621;BME280;5866;49.094;11.900;2023-04-27T04:58:43;96364.97;;;7.82;74.24
11621;BME280;5866;49.094;11.900;2023-04-27T05:01:11;96363.56;;;7.97;73.79
11621;BME280;5866;49.094;11.900;2023-04-27T05:03:39;96362.97;;;8.03;72.59
11621;BME280;5866;49.094;11.900;2023-04-27T05:06:06;96365.22;;;7.98;72.83
11621;BME280;5866;49.094;11.900;2023-04-27T05:08:35;96348.44;;;8.36;71.08
11621;BME280;5866;49.094;11.900;2023-04-27T05:11:03;96365.72;;;8.57;70.25
11621;BME280;5866;49.094;11.900;2023-04-27T05:13:31;96365.25;;;8.71;72.47
11621;BME280;5866;49.094;11.900;2023-04-27T05:15:58;96365.47;;;8.60;70.31
11621;BME280;5866;49.094;11.900;2023-04-27T05:18:26;96359.56;;;8.94;68.45
11621;BME280;5866;49.094;11.900;2023-04-27T05:20:53;96351.22;;;9.33;66.50
11621;BME280;5866;49.094;11.900;2023-04-27T05:23:21;96358.59;;;9.65;64.30
11621;BME280;5866;49.094;11.900;2023-04-27T05:25:50;96371.44;;;8.62;66.46
11621;BME280;5866;49.094;11.900;2023-04-27T05:28:18;96363.00;;;8.76;65.36
11621;BME280;5866;49.094;11.900;2023-04-27T05:30:46;96363.75;;;8.32;68.41
11621;BME280;5866;49.094;11.900;2023-04-27T05:33:13;96372.97;;;8.09;69.70
11621;BME280;5866;49.094;11.900;2023-04-27T05:35:41;96369.81;;;8.42;70.11
11621;BME280;5866;49.094;11.900;2023-04-27T05:38:08;96373.75;;;8.93;66.07
11621;BME280;5866;49.094;11.900;2023-04-27T05:40:36;96374.31;;;9.14;68.91
11621;BME280;5866;49.094;11.900;2023-04-27T05:43:05;96375.09;;;9.59;65.69
11621;BME280;5866;49.094;11.900;2023-04-27T05:45:32;96377.66;;;10.29;62.66
11621;BME280;5866;49.094;11.900;2023-04-27T05:48:00;96376.34;;;10.67;61.58
11621;BME280;5866;49.094;11.900;2023-04-27T05:50:27;96378.03;;;11.10;59.64
11621;BME280;5866;49.094;11.900;2023-04-27T05:52:55;96381.34;;;11.12;58.25
11621;BME280;5866;49.094;11.900;2023-04-27T05:55:22;96383.47;;;11.08;58.56
11621;BME280;5866;49.094;11.900;2023-04-27T05:57:50;96379.53;;;11.20;57.06
11621;BME280;5866;49.094;11.900;2023-04-27T06:00:34;96377.78;;;11.45;57.39
11621;BME280;5866;49.094;11.900;2023-04-27T06:03:01;96382.81;;;11.72;55.98
11621;BME280;5866;49.094;11.900;2023-04-27T06:05:29;96381.81;;;11.73;55.64
11621;BME280;5866;49.094;11.900;2023-04-27T06:07:57;96378.13;;;12.39;54.48
11621;BME280;5866;49.094;11.900;2023-04-27T06:10:24;96386.63;;;12.89;53.13
11621;BME280;5866;49.094;11.900;2023-04-27T06:12:52;96388.47;;;11.85;56.21
11621;BME280;5866;49.094;11.900;2023-04-27T06:15:19;96391.97;;;12.02;54.76
11621;BME280;5866;49.094;11.900;2023-04-27T06:17:51;96383.78;;;12.28;53.18
11621;BME280;5866;49.094;11.900;2023-04-27T06:20:19;96385.63;;;12.27;53.42
11621;BME280;5866;49.094;11.900;2023-04-27T06:22:49;96388.84;;;12.61;52.73
11621;BME280;5866;49.094;11.900;2023-04-27T06:25:17;96395.75;;;11.75;54.65
11621;BME280;5866;49.094;11.900;2023-04-27T06:27:45;96397.16;;;11.30;54.78
11621;BME280;5866;49.094;11.900;2023-04-27T06:30:13;96396.84;;;11.49;55.34
11621;BME280;5866;49.094;11.900;2023-04-27T06:32:41;96404.00;;;11.48;55.68
11621;BME280;5866;49.094;11.900;2023-04-27T06:35:11;96405.66;;;11.49;55.75
11621;BME280;5866;49.094;11.900;2023-04-27T06:37:38;96403.06;;;11.73;55.41
11621;BME280;5866;49.094;11.900;2023-04-27T06:40:06;96403.47;;;12.73;52.96
11621;BME280;5866;49.094;11.900;2023-04-27T06:42:34;96404.81;;;12.77;52.71
11621;BME280;5866;49.094;11.900;2023-04-27T06:45:02;96405.31;;;13.20;51.59
11621;BME280;5866;49.094;11.900;2023-04-27T06:47:31;96397.22;;;13.05;51.09
11621;BME280;5866;49.094;11.900;2023-04-27T06:49:58;96399.06;;;13.66;50.19
11621;BME280;5866;49.094;11.900;2023-04-27T06:52:27;96395.38;;;14.12;48.91
11621;BME280;5866;49.094;11.900;2023-04-27T06:54:54;96394.56;;;14.35;48.17
11621;BME280;5866;49.094;11.900;2023-04-27T06:57:22;96399.84;;;15.01;46.72
11621;BME280;5866;49.094;11.900;2023-04-27T06:59:50;96394.97;;;15.69;44.67
11621;BME280;5866;49.094;11.900;2023-04-27T07:02:17;96404.47;;;16.14;43.66
11621;BME280;5866;49.094;11.900;2023-04-27T07:04:45;96404.47;;;16.56;43.11
11621;BME280;5866;49.094;11.900;2023-04-27T07:07:13;96410.78;;;17.11;42.81
11621;BME280;5866;49.094;11.900;2023-04-27T07:09:42;96406.44;;;17.10;43.46
11621;BME280;5866;49.094;11.900;2023-04-27T07:12:09;96402.28;;;17.41;41.80
11621;BME280;5866;49.094;11.900;2023-04-27T07:14:37;96399.00;;;17.46;41.50
11621;BME280;5866;49.094;11.900;2023-04-27T07:17:04;96396.47;;;17.85;41.09
11621;BME280;5866;49.094;11.900;2023-04-27T07:19:32;96400.66;;;18.34;41.06
11621;BME280;5866;49.094;11.900;2023-04-27T07:21:59;96400.72;;;18.47;39.47
11621;BME280;5866;49.094;11.900;2023-04-27T07:24:27;96396.38;;;18.59;39.14
11621;BME280;5866;49.094;11.900;2023-04-27T07:26:55;96404.81;;;18.69;38.72
11621;BME280;5866;49.094;11.900;2023-04-27T07:29:24;96390.97;;;18.46;39.88
11621;BME280;5866;49.094;11.900;2023-04-27T07:31:53;96398.41;;;18.24;38.91
11621;BME280;5866;49.094;11.900;2023-04-27T07:34:22;96401.50;;;18.27;39.12
11621;BME280;5866;49.094;11.900;2023-04-27T07:36:50;96394.28;;;18.48;39.46
11621;BME280;5866;49.094;11.900;2023-04-27T07:39:19;96396.13;;;18.93;38.93
11621;BME280;5866;49.094;11.900;2023-04-27T07:41:46;96395.19;;;19.38;37.81
11621;BME280;5866;49.094;11.900;2023-04-27T07:44:17;96393.06;;;19.60;37.10
11621;BME280;5866;49.094;11.900;2023-04-27T07:46:45;96390.84;;;19.81;35.88
11621;BME280;5866;49.094;11.900;2023-04-27T07:49:14;96387.47;;;19.93;36.77
11621;BME280;5866;49.094;11.900;2023-04-27T07:51:41;96395.41;;;20.19;35.97
11621;BME280;5866;49.094;11.900;2023-04-27T07:54:09;96392.34;;;20.09;35.40
11621;BME280;5866;49.094;11.900;2023-04-27T07:56:39;96393.75;;;20.49;34.98
11621;BME280;5866;49.094;11.900;2023-04-27T07:59:06;96393.59;;;20.44;34.75
11621;BME280;5866;49.094;11.900;2023-04-27T08:01:35;96405.66;;;20.66;34.95
11621;BME280;5866;49.094;11.900;2023-04-27T08:04:03;96399.66;;;20.39;34.12
11621;BME280;5866;49.094;11.900;2023-04-27T08:06:31;96407.41;;;20.54;33.45
11621;BME280;5866;49.094;11.900;2023-04-27T08:09:00;96402.50;;;20.07;34.70
11621;BME280;5866;49.094;11.900;2023-04-27T08:11:29;96411.13;;;19.84;36.09
11621;BME280;5866;49.094;11.900;2023-04-27T08:13:57;96416.69;;;19.51;35.33
11621;BME280;5866;49.094;11.900;2023-04-27T08:16:24;96418.84;;;19.10;34.79
11621;BME280;5866;49.094;11.900;2023-04-27T08:18:53;96419.47;;;19.12;35.94
11621;BME280;5866;49.094;11.900;2023-04-27T08:21:21;96412.25;;;18.80;35.70
11621;BME280;5866;49.094;11.900;2023-04-27T08:23:48;96413.81;;;19.33;36.06
11621;BME280;5866;49.094;11.900;2023-04-27T08:26:16;96421.16;;;19.70;34.40
11621;BME280;5866;49.094;11.900;2023-04-27T08:28:43;96412.94;;;19.97;32.91
11621;BME280;5866;49.094;11.900;2023-04-27T08:31:11;96412.59;;;20.18;33.31
11621;BME280;5866;49.094;11.900;2023-04-27T08:33:38;96416.94;;;19.88;34.48
11621;BME280;5866;49.094;11.900;2023-04-27T08:36:08;96413.06;;;20.15;32.91
11621;BME280;5866;49.094;11.900;2023-04-27T08:38:35;96414.34;;;20.68;31.39
11621;BME280;5866;49.094;11.900;2023-04-27T08:41:03;96415.75;;;20.95;31.84
11621;BME280;5866;49.094;11.900;2023-04-27T08:43:46;96407.44;;;21.40;31.00
11621;BME280;5866;49.094;11.900;2023-04-27T08:46:17;96403.78;;;22.00;30.20
11621;BME280;5866;49.094;11.900;2023-04-27T08:48:45;96402.78;;;21.65;29.85
11621;BME280;5866;49.094;11.900;2023-04-27T08:51:15;96414.03;;;21.80;30.81
11621;BME280;5866;49.094;11.900;2023-04-27T08:53:49;96406.63;;;22.76;30.48
11621;BME280;5866;49.094;11.900;2023-04-27T08:56:17;96408.41;;;23.05;30.41
11621;BME280;5866;49.094;11.900;2023-04-27T08:58:44;96409.69;;;23.03;28.76
11621;BME280;5866;49.094;11.900;2023-04-27T09:01:12;96412.34;;;23.72;28.39
11621;BME280;5866;49.094;11.900;2023-04-27T09:03:39;96402.00;;;24.54;28.24
11621;BME280;5866;49.094;11.900;2023-04-27T09:06:07;96405.69;;;24.92;27.12
11621;BME280;5866;49.094;11.900;2023-04-27T09:08:44;96410.88;;;24.94;26.74
11621;BME280;5866;49.094;11.900;2023-04-27T09:11:12;96406.03;;;25.72;26.76
11621;BME280;5866;49.094;11.900;2023-04-27T09:13:42;96408.25;;;25.75;26.78
11621;BME280;5866;49.094;11.900;2023-04-27T09:16:11;96413.53;;;25.27;26.00
11621;BME280;5866;49.094;11.900;2023-04-27T09:18:41;96416.56;;;24.76;27.14
11621;BME280;5866;49.094;11.900;2023-04-27T09:21:09;96404.34;;;24.95;27.41
11621;BME280;5866;49.094;11.900;2023-04-27T09:23:38;96405.97;;;24.63;26.65
11621;BME280;5866;49.094;11.900;2023-04-27T09:26:07;96402.03;;;24.70;26.63
11621;BME280;5866;49.094;11.900;2023-04-27T09:28:37;96410.34;;;23.79;28.08
11621;BME280;5866;49.094;11.900;2023-04-27T09:31:05;96405.78;;;24.36;25.96
11621;BME280;5866;49.094;11.900;2023-04-27T09:33:35;96405.81;;;24.53;26.72
11621;BME280;5866;49.094;11.900;2023-04-27T09:36:04;96397.09;;;25.17;26.34
11621;BME280;5866;49.094;11.900;2023-04-27T09:38:32;96409.31;;;24.08;26.36
11621;BME280;5866;49.094;11.900;2023-04-27T09:41:01;96407.69;;;23.21;26.41
11621;BME280;5866;49.094;11.900;2023-04-27T09:43:30;96401.78;;;24.10;26.16
11621;BME280;5866;49.094;11.900;2023-04-27T09:45:57;96397.25;;;20.99;29.22
11621;BME280;5866;49.094;11.900;2023-04-27T09:48:25;96394.28;;;22.68;27.20
11621;BME280;5866;49.094;11.900;2023-04-27T09:50:52;96392.44;;;24.96;25.48
11621;BME280;5866;49.094;11.900;2023-04-27T09:53:24;96384.03;;;25.95;25.14
11621;BME280;5866;49.094;11.900;2023-04-27T09:56:02;96377.31;;;26.78;24.46
11621;BME280;5866;49.094;11.900;2023-04-27T09:58:54;96378.25;;;26.09;24.27
11621;BME280;5866;49.094;11.900;2023-04-27T10:01:28;96373.53;;;26.26;24.08
11621;BME280;5866;49.094;11.900;2023-04-27T10:04:14;96371.41;;;27.28;24.52
11621;BME280;5866;49.094;11.900;2023-04-27T10:06:58;96368.59;;;26.23;23.60
11621;BME280;5866;49.094;11.900;2023-04-27T10:09:26;96374.75;;;26.13;24.80
11621;BME280;5866;49.094;11.900;2023-04-27T10:12:13;96368.69;;;25.63;25.97
11621;BME280;5866;49.094;11.900;2023-04-27T10:14:49;96362.09;;;24.82;25.96
11621;BME280;5866;49.094;11.900;2023-04-27T10:17:17;96379.44;;;23.40;26.52
11621;BME280;5866;49.094;11.900;2023-04-27T10:19:53;96374.16;;;22.87;26.88
11621;BME280;5866;49.094;11.900;2023-04-27T10:22:35;96369.09;;;22.68;27.62
11621;BME280;5866;49.094;11.900;2023-04-27T10:25:12;96363.59;;;22.74;27.71
11621;BME280;5866;49.094;11.900;2023-04-27T10:27:41;96366.06;;;22.99;27.46
11621;BME280;5866;49.094;11.900;2023-04-27T10:30:12;96356.97;;;23.40;26.59
11621;BME280;5866;49.094;11.900;2023-04-27T10:32:49;96359.03;;;23.61;27.46
11621;BME280;5866;49.094;11.900;2023-04-27T10:35:18;96359.97;;;23.95;27.67
11621;BME280;5866;49.094;11.900;2023-04-27T10:37:47;96356.00;;;24.42;26.94
11621;BME280;5866;49.094;11.900;2023-04-27T10:40:14;96351.88;;;24.39;26.71
11621;BME280;5866;49.094;11.900;2023-04-27T10:42:44;96352.69;;;24.23;25.44
11621;BME280;5866;49.094;11.900;2023-04-27T10:45:12;96348.56;;;23.93;26.44
11621;BME280;5866;49.094;11.900;2023-04-27T10:47:42;96357.91;;;23.34;27.21
11621;BME280;5866;49.094;11.900;2023-04-27T10:50:12;96349.81;;;22.64;27.47
11621;BME280;5866;49.094;11.900;2023-04-27T10:52:40;96345.28;;;22.35;28.21
11621;BME280;5866;49.094;11.900;2023-04-27T10:55:13;96343.97;;;22.26;28.01
11621;BME280;5866;49.094;11.900;2023-04-27T10:57:45;96335.28;;;23.40;27.92
11621;BME280;5866;49.094;11.900;2023-04-27T11:00:21;96331.66;;;24.64;26.48
11621;BME280;5866;49.094;11.900;2023-04-27T11:02:49;96338.16;;;25.34;25.42
11621;BME280;5866;49.094;11.900;2023-04-27T11:05:18;96340.72;;;24.86;25.08
11621;BME280;5866;49.094;11.900;2023-04-27T11:07:46;96334.94;;;23.76;26.21
11621;BME280;5866;49.094;11.900;2023-04-27T11:10:14;96335.53;;;21.45;28.24
11621;BME280;5866;49.094;11.900;2023-04-27T11:12:42;96343.81;;;19.91;30.55
11621;BME280;5866;49.094;11.900;2023-04-27T11:15:10;96342.66;;;20.05;32.24
11621;BME280;5866;49.094;11.900;2023-04-27T11:17:40;96340.16;;;21.02;30.07
11621;BME280;5866;49.094;11.900;2023-04-27T11:20:08;96347.84;;;21.89;28.34
11621;BME280;5866;49.094;11.900;2023-04-27T11:22:43;96346.47;;;21.98;29.17
11621;BME280;5866;49.094;11.900;2023-04-27T11:25:11;96342.31;;;22.25;28.37
11621;BME280;5866;49.094;11.900;2023-04-27T11:27:40;96340.91;;;22.23;28.57
11621;BME280;5866;49.094;11.900;2023-04-27T11:30:18;96331.13;;;21.51;29.43
11621;BME280;5866;49.094;11.900;2023-04-27T11:32:48;96342.59;;;19.87;31.76
11621;BME280;5866;49.094;11.900;2023-04-27T11:35:16;96331.72;;;22.12;28.68
11621;BME280;5866;49.094;11.900;2023-04-27T11:37:55;96326.72;;;24.11;27.39
11621;BME280;5866;49.094;11.900;2023-04-27T11:40:23;96332.34;;;22.37;28.59
11621;BME280;5866;49.094;11.900;2023-04-27T11:42:55;96332.16;;;23.20;27.73
11621;BME280;5866;49.094;11.900;2023-04-27T11:45:24;96332.47;;;24.03;26.62
11621;BME280;5866;49.094;11.900;2023-04-27T11:47:56;96332.94;;;25.49;27.46
11621;BME280;5866;49.094;11.900;2023-04-27T11:50:24;96332.81;;;25.01;26.11
11621;BME280;5866;49.094;11.900;2023-04-27T11:52:52;96331.09;;;24.00;26.81
11621;BME280;5866;49.094;11.900;2023-04-27T11:55:20;96327.94;;;24.70;25.92
11621;BME280;5866;49.094;11.900;2023-04-27T11:57:48;96329.69;;;22.60;29.72
11621;BME280;5866;49.094;11.900;2023-04-27T12:00:16;96326.41;;;22.58;28.45
11621;BME280;5866;49.094;11.900;2023-04-27T12:02:44;96335.09;;;23.07;27.61
11621;BME280;5866;49.094;11.900;2023-04-27T12:05:13;96336.13;;;21.47;29.88
11621;BME280;5866;49.094;11.900;2023-04-27T12:07:41;96339.56;;;22.66;28.11
11621;BME280;5866;49.094;11.900;2023-04-27T12:10:09;96325.25;;;24.36;26.93
11621;BME280;5866;49.094;11.900;2023-04-27T12:12:37;96323.31;;;24.82;25.75
11621;BME280;5866;49.094;11.900;2023-04-27T12:15:06;96320.38;;;25.43;24.85
11621;BME280;5866;49.094;11.900;2023-04-27T12:17:34;96319.31;;;26.46;24.23
11621;BME280;5866;49.094;11.900;2023-04-27T12:20:03;96303.22;;;26.13;26.85
11621;BME280;5866;49.094;11.900;2023-04-27T12:22:32;96335.63;;;21.02;29.88
11621;BME280;5866;49.094;11.900;2023-04-27T12:24:59;96323.13;;;21.56;28.19
11621;BME280;5866;49.094;11.900;2023-04-27T12:27:27;96323.75;;;22.17;28.63
11621;BME280;5866;49.094;11.900;2023-04-27T12:29:54;96325.78;;;23.26;26.95
11621;BME280;5866;49.094;11.900;2023-04-27T12:32:24;96322.44;;;24.98;26.66
11621;BME280;5866;49.094;11.900;2023-04-27T12:34:53;96326.72;;;22.50;29.80
11621;BME280;5866;49.094;11.900;2023-04-27T12:37:20;96325.47;;;19.30;31.60
11621;BME280;5866;49.094;11.900;2023-04-27T12:39:52;96322.19;;;17.99;33.90
11621;BME280;5866;49.094;11.900;2023-04-27T12:42:20;96324.56;;;20.43;31.90
11621;BME280;5866;49.094;11.900;2023-04-27T12:44:49;96321.56;;;22.49;28.21
11621;BME280;5866;49.094;11.900;2023-04-27T12:47:17;96322.56;;;23.52;28.38
11621;BME280;5866;49.094;11.900;2023-04-27T12:50:06;96312.13;;;24.00;27.33
11621;BME280;5866;49.094;11.900;2023-04-27T12:52:34;96320.31;;;24.67;27.78
11621;BME280;5866;49.094;11.900;2023-04-27T12:55:04;96312.28;;;25.48;25.33
11621;BME280;5866;49.094;11.900;2023-04-27T12:57:43;96317.19;;;22.36;29.72
11621;BME280;5866;49.094;11.900;2023-04-27T13:00:11;96331.47;;;19.32;35.57
11621;BME280;5866;49.094;11.900;2023-04-27T13:02:39;96332.47;;;18.87;34.27
11621;BME280;5866;49.094;11.900;2023-04-27T13:05:08;96320.63;;;19.01;34.27
11621;BME280;5866;49.094;11.900;2023-04-27T13:07:37;96328.66;;;19.14;31.61
11621;BME280;5866;49.094;11.900;2023-04-27T13:10:06;96305.88;;;21.27;30.85
11621;BME280;5866;49.094;11.900;2023-04-27T13:12:34;96308.00;;;21.55;32.43